createdAt,value
2017-04-25T00:01:02.762Z,10.9
2017-04-25T00:02:12.787Z,10.94
2017-04-25T00:03:23.134Z,10.92
2017-04-25T00:04:33.492Z,10.94
2017-04-25T00:05:43.842Z,10.92
2017-04-25T00:06:54.185Z,10.92
2017-04-25T00:08:04.223Z,10.84
2017-04-25T00:09:14.586Z,10.9
2017-04-25T00:10:24.608Z,10.92
2017-04-25T00:11:34.940Z,10.84
2017-04-25T00:12:45.291Z,10.88
2017-04-25T00:13:55.651Z,10.85
2017-04-25T00:15:06.002Z,10.85
2017-04-25T00:16:16.347Z,10.79
2017-04-25T00:17:26.397Z,10.9
2017-04-25T00:18:36.135Z,10.9
2017-04-25T00:19:46.505Z,10.8
2017-04-25T00:20:56.872Z,10.91
2017-04-25T00:22:06.933Z,10.84
2017-04-25T00:23:17.289Z,10.77
2017-04-25T00:24:27.631Z,10.79
2017-04-25T00:25:38.009Z,10.8
2017-04-25T00:26:48.342Z,10.83
2017-04-25T00:27:58.691Z,10.76
2017-04-25T00:29:09.038Z,10.67
2017-04-25T00:30:19.366Z,10.66
2017-04-25T00:31:29.394Z,10.69
2017-04-25T00:32:39.738Z,10.69
2017-04-25T00:33:49.762Z,10.67
2017-04-25T00:35:00.103Z,10.65
2017-04-25T00:36:10.461Z,10.69
2017-04-25T00:37:20.792Z,10.65
2017-04-25T00:38:30.823Z,10.63
2017-04-25T00:39:41.174Z,10.57
2017-04-25T00:40:51.202Z,10.44
2017-04-25T00:42:01.537Z,10.55
2017-04-25T00:43:11.874Z,10.44
2017-04-25T00:44:21.902Z,10.44
2017-04-25T00:45:32.243Z,10.36
2017-04-25T00:46:42.579Z,10.39
2017-04-25T00:47:52.611Z,10.38
2017-04-25T00:49:02.964Z,10.36
2017-04-25T00:50:13.359Z,10.38
2017-04-25T00:51:23.703Z,10.36
2017-04-25T00:52:34.037Z,10.35
2017-04-25T00:53:44.384Z,10.44
2017-04-25T00:54:54.417Z,10.32
2017-04-25T00:56:04.464Z,10.35
2017-04-25T00:57:14.519Z,10.31
2017-04-25T00:58:24.889Z,10.32
2017-04-25T00:59:35.248Z,10.29
2017-04-25T01:00:45.599Z,10.28
2017-04-25T01:01:55.663Z,10.25
2017-04-25T01:03:05.684Z,10.23
2017-04-25T01:04:15.398Z,10.25
2017-04-25T01:05:25.422Z,10.28
2017-04-25T01:06:35.450Z,10.26
2017-04-25T01:07:45.490Z,10.17
2017-04-25T01:08:55.532Z,10.1
2017-04-25T01:10:05.873Z,10.15
2017-04-25T01:11:16.201Z,10.15
2017-04-25T01:12:26.544Z,10.14
2017-04-25T01:13:36.887Z,10.13
2017-04-25T01:14:47.236Z,10.17
2017-04-25T01:15:57.568Z,10.13
2017-04-25T01:17:07.946Z,10.13
2017-04-25T01:18:18.300Z,10.13
2017-04-25T01:19:28.647Z,10.13
2017-04-25T01:20:38.999Z,10.02
2017-04-25T01:21:49.021Z,10.1
2017-04-25T01:22:59.078Z,10.08
2017-04-25T01:24:09.114Z,10.05
2017-04-25T01:25:19.450Z,10.07
2017-04-25T01:26:29.478Z,10.13
2017-04-25T01:27:39.519Z,10.1
2017-04-25T01:28:49.876Z,10.1
2017-04-25T01:29:59.924Z,10.03
2017-04-25T01:31:10.319Z,10.13
2017-04-25T01:32:20.682Z,10.02
2017-04-25T01:33:31.013Z,10.03
2017-04-25T01:34:41.066Z,10.02
2017-04-25T01:35:51.426Z,9.96
2017-04-25T01:37:01.758Z,9.95
2017-04-25T01:38:12.100Z,9.9
2017-04-25T01:39:22.126Z,9.98
2017-04-25T01:40:32.478Z,9.95
2017-04-25T01:41:42.820Z,9.96
2017-04-25T01:42:53.177Z,9.98
2017-04-25T01:44:03.529Z,9.99
2017-04-25T01:45:13.876Z,9.98
2017-04-25T01:46:24.249Z,9.93
2017-04-25T01:47:34.594Z,9.85
2017-04-25T01:48:44.943Z,9.84
2017-04-25T01:49:54.963Z,9.88
2017-04-25T01:51:05.319Z,9.89
2017-04-25T01:52:15.360Z,9.84
2017-04-25T01:53:25.692Z,9.98
2017-04-25T01:54:36.092Z,9.84
2017-04-25T01:55:46.115Z,9.82
2017-04-25T01:56:56.153Z,9.88
2017-04-25T01:58:06.494Z,9.81
2017-04-25T01:59:16.224Z,9.84
2017-04-25T02:00:26.603Z,9.82
2017-04-25T02:01:36.941Z,9.81
2017-04-25T02:02:47.288Z,9.82
2017-04-25T02:03:57.655Z,9.88
2017-04-25T02:05:07.665Z,9.82
2017-04-25T02:06:17.997Z,9.75
2017-04-25T02:07:28.354Z,9.84
2017-04-25T02:08:38.700Z,9.77
2017-04-25T02:09:48.732Z,9.81
2017-04-25T02:10:59.083Z,9.89
2017-04-25T02:12:09.119Z,9.72
2017-04-25T02:13:19.476Z,9.71
2017-04-25T02:14:29.814Z,9.78
2017-04-25T02:15:40.174Z,9.72
2017-04-25T02:16:50.511Z,9.78
2017-04-25T02:18:00.863Z,9.84
2017-04-25T02:19:11.216Z,9.8
2017-04-25T02:20:21.578Z,9.8
2017-04-25T02:21:31.341Z,9.89
2017-04-25T02:22:41.385Z,9.82
2017-04-25T02:23:51.727Z,9.84
2017-04-25T02:25:01.765Z,9.85
2017-04-25T02:26:11.824Z,9.82
2017-04-25T02:27:21.884Z,9.85
2017-04-25T02:28:31.933Z,9.82
2017-04-25T02:29:42.303Z,9.85
2017-04-25T02:30:52.678Z,9.85
2017-04-25T02:32:03.012Z,9.82
2017-04-25T02:33:12.721Z,9.84
2017-04-25T02:34:23.117Z,9.88
2017-04-25T02:35:33.471Z,9.9
2017-04-25T02:36:43.797Z,9.84
2017-04-25T02:37:54.137Z,9.88
2017-04-25T02:39:04.494Z,9.84
2017-04-25T02:40:14.514Z,9.84
2017-04-25T02:41:24.873Z,9.82
2017-04-25T02:42:34.905Z,9.84
2017-04-25T02:43:45.260Z,9.88
2017-04-25T02:44:55.598Z,9.82
2017-04-25T02:46:05.977Z,9.85
2017-04-25T02:47:16.007Z,9.89
2017-04-25T02:48:26.354Z,9.81
2017-04-25T02:49:36.694Z,9.88
2017-04-25T02:50:46.723Z,9.84
2017-04-25T02:51:57.070Z,9.75
2017-04-25T02:53:07.096Z,9.72
2017-04-25T02:54:17.128Z,9.8
2017-04-25T02:55:26.859Z,9.81
2017-04-25T02:56:37.214Z,9.78
2017-04-25T02:57:47.242Z,9.75
2017-04-25T02:58:57.625Z,9.72
2017-04-25T03:00:07.964Z,9.77
2017-04-25T03:01:18.003Z,9.71
2017-04-25T03:32:33.159Z,6.17
2017-04-25T03:33:43.481Z,6.18
2017-04-25T03:34:53.815Z,6.1
2017-04-25T03:36:04.181Z,6.2
2017-04-25T03:37:14.524Z,6.21
2017-04-25T03:38:24.866Z,6.26
2017-04-25T03:39:35.204Z,6.39
2017-04-25T03:40:45.234Z,6.44
2017-04-25T03:41:55.568Z,6.58
2017-04-25T03:43:05.928Z,6.79
2017-04-25T03:44:16.268Z,6.88
2017-04-25T03:45:26.645Z,7.11
2017-04-25T03:46:37.024Z,7.22
2017-04-25T03:47:47.379Z,7.41
2017-04-25T03:48:57.714Z,7.59
2017-04-25T03:50:08.111Z,7.64
2017-04-25T03:51:18.460Z,7.88
2017-04-25T03:52:29.068Z,8.04
2017-04-25T03:53:39.410Z,8.07
2017-04-25T03:54:49.441Z,8.11
2017-04-25T03:55:59.793Z,8.28
2017-04-25T03:57:10.136Z,8.35
2017-04-25T03:58:19.845Z,8.44
2017-04-25T03:59:29.882Z,8.44
2017-04-25T04:00:40.230Z,8.58
2017-04-25T04:01:50.265Z,8.68
2017-04-25T04:03:00.300Z,8.74
2017-04-25T04:04:10.637Z,8.82
2017-04-25T04:05:20.987Z,8.85
2017-04-25T04:06:31.023Z,8.95
2017-04-25T04:07:41.419Z,8.98
2017-04-25T04:08:51.495Z,9.09
2017-04-25T04:10:01.857Z,9.12
2017-04-25T04:11:11.881Z,9.14
2017-04-25T04:12:22.227Z,9.17
2017-04-25T04:13:32.287Z,9.23
2017-04-25T04:14:42.626Z,9.19
2017-04-25T04:15:52.978Z,9.34
2017-04-25T04:17:03.314Z,9.53
2017-04-25T04:18:13.649Z,9.62
2017-04-25T04:19:23.673Z,9.71
2017-04-25T04:20:34.007Z,9.75
2017-04-25T04:21:44.355Z,9.8
2017-04-25T04:22:54.711Z,9.96
2017-04-25T04:24:05.044Z,10.14
2017-04-25T04:25:15.374Z,10.31
2017-04-25T04:26:25.731Z,10.36
2017-04-25T04:27:36.073Z,10.88
2017-04-25T04:28:46.426Z,11.43
2017-04-25T04:29:56.780Z,12.01
2017-04-25T04:31:07.125Z,12.38
2017-04-25T04:32:17.467Z,12.66
2017-04-25T04:33:27.809Z,12.95
2017-04-25T04:34:37.868Z,13.32
2017-04-25T04:35:48.209Z,13.63
2017-04-25T04:36:58.570Z,13.75
2017-04-25T04:38:08.910Z,13.87
2017-04-25T04:39:18.647Z,14.11
2017-04-25T04:40:28.677Z,14.28
2017-04-25T04:41:39.028Z,14.45
2017-04-25T04:42:49.651Z,14.64
2017-04-25T04:43:59.672Z,14.86
2017-04-25T04:45:10.039Z,15.1
2017-04-25T04:46:20.081Z,15.15
2017-04-25T04:47:30.432Z,15.41
2017-04-25T04:48:40.811Z,15.56
2017-04-25T04:49:50.851Z,15.74
2017-04-25T04:51:00.895Z,15.84
2017-04-25T04:52:11.250Z,16.1
2017-04-25T04:53:21.278Z,16.25
2017-04-25T04:54:31.008Z,16.34
2017-04-25T04:55:41.354Z,16.57
2017-04-25T04:56:51.695Z,16.66
2017-04-25T04:58:02.036Z,16.94
2017-04-25T04:59:12.057Z,17.05
2017-04-25T05:00:22.401Z,17.18
2017-04-25T05:01:32.741Z,17.2
2017-04-25T05:02:43.086Z,17.4
2017-04-25T05:03:53.430Z,17.57
2017-04-25T05:05:03.494Z,17.65
2017-04-25T05:06:13.521Z,17.76
2017-04-25T05:07:23.875Z,17.9
2017-04-25T05:08:34.229Z,17.83
2017-04-25T05:09:44.280Z,17.98
2017-04-25T05:10:54.326Z,18.06
2017-04-25T05:12:04.669Z,18.14
2017-04-25T05:13:14.701Z,18.16
2017-04-25T05:14:24.413Z,18.26
2017-04-25T05:15:34.459Z,18.32
2017-04-25T05:16:44.807Z,18.41
2017-04-25T05:17:54.848Z,18.36
2017-04-25T05:19:04.907Z,18.45
2017-04-25T05:20:15.267Z,18.5
2017-04-25T05:21:25.626Z,18.44
2017-04-25T05:22:35.981Z,18.42
2017-04-25T05:23:46.349Z,18.45
2017-04-25T05:24:56.401Z,18.57
2017-04-25T05:26:06.769Z,18.56
2017-04-25T05:27:16.802Z,18.6
2017-04-25T05:28:26.546Z,18.61
2017-04-25T05:29:36.900Z,18.71
2017-04-25T05:30:47.246Z,18.86
2017-04-25T05:31:57.608Z,18.89
2017-04-25T05:33:07.660Z,18.99
2017-04-25T05:34:17.698Z,19.15
2017-04-25T05:35:28.040Z,19.16
2017-04-25T05:36:38.394Z,19.23
2017-04-25T05:37:48.732Z,19.25
2017-04-25T05:38:58.771Z,19.2
2017-04-25T05:40:09.115Z,19.23
2017-04-25T05:41:19.526Z,19.19
2017-04-25T05:42:29.560Z,19.17
2017-04-25T05:43:39.915Z,19.09
2017-04-25T05:44:50.275Z,19.06
2017-04-25T05:46:00.627Z,18.89
2017-04-25T05:47:10.672Z,18.38
2017-04-25T05:48:21.020Z,17.76
2017-04-25T05:49:31.071Z,17.32
2017-04-25T05:50:41.408Z,17.09
2017-04-25T05:51:51.757Z,16.88
2017-04-25T05:53:01.809Z,16.77
2017-04-25T05:54:12.140Z,16.63
2017-04-25T05:55:22.477Z,16.59
2017-04-25T05:56:32.849Z,16.37
2017-04-25T05:57:43.194Z,16.42
2017-04-25T05:58:53.223Z,16.4
2017-04-25T06:00:03.560Z,16.47
2017-04-25T06:01:13.922Z,16.4
2017-04-25T06:02:23.956Z,16.34
2017-04-25T06:03:34.314Z,16.22
2017-04-25T06:04:43.737Z,16.27
2017-04-25T06:05:53.782Z,16.3
2017-04-25T06:07:03.810Z,16.26
2017-04-25T06:08:13.844Z,16.26
2017-04-25T06:09:24.191Z,16.36
2017-04-25T06:10:34.539Z,16.32
2017-04-25T06:11:44.881Z,16.29
2017-04-25T06:13:14.164Z,16.37
2017-04-25T06:14:24.540Z,16.45
2017-04-25T06:15:34.912Z,16.32
2017-04-25T06:16:45.260Z,16.34
2017-04-25T06:17:55.291Z,16.44
2017-04-25T06:19:05.009Z,16.49
2017-04-25T06:20:15.368Z,16.51
2017-04-25T06:21:25.718Z,16.45
2017-04-25T06:22:36.060Z,16.55
2017-04-25T06:23:46.401Z,16.57
2017-04-25T06:24:56.745Z,16.55
2017-04-25T06:26:06.793Z,16.72
2017-04-25T06:27:17.145Z,16.95
2017-04-25T06:28:26.571Z,17.05
2017-04-25T06:29:36.603Z,17.03
2017-04-25T06:30:46.954Z,17.06
2017-04-25T06:31:57.327Z,17.09
2017-04-25T06:33:07.050Z,17.15
2017-04-25T06:34:17.089Z,17.12
2017-04-25T06:35:27.418Z,17.07
2017-04-25T06:36:37.802Z,17.17
2017-04-25T06:37:47.837Z,17.15
2017-04-25T06:38:58.197Z,17.07
2017-04-25T06:40:08.543Z,17.18
2017-04-25T06:41:18.876Z,17.15
2017-04-25T06:42:29.171Z,17.12
2017-04-25T06:43:39.508Z,17.21
2017-04-25T06:44:49.861Z,17.18
2017-04-25T06:46:00.207Z,17.3
2017-04-25T06:47:09.870Z,17.39
2017-04-25T06:48:19.921Z,17.4
2017-04-25T06:49:30.284Z,17.58
2017-04-25T06:50:40.634Z,17.57
2017-04-25T06:51:50.677Z,17.66
2017-04-25T06:53:00.737Z,17.62
2017-04-25T06:54:11.120Z,17.69
2017-04-25T06:55:21.171Z,17.76
2017-04-25T06:56:31.565Z,17.92
2017-04-25T06:57:41.619Z,17.86
2017-04-25T06:58:51.972Z,18.03
2017-04-25T07:00:02.313Z,18.1
2017-04-25T07:01:12.654Z,18.14
2017-04-25T07:02:23.013Z,18.16
2017-04-25T07:03:33.063Z,18.16
2017-04-25T07:04:43.096Z,18.23
2017-04-25T07:05:53.458Z,18.2
2017-04-25T07:07:03.799Z,18.17
2017-04-25T07:08:14.175Z,18.31
2017-04-25T07:09:24.508Z,18.27
2017-04-25T07:10:34.859Z,18.24
2017-04-25T07:11:44.894Z,18.14
2017-04-25T07:12:55.277Z,18.14
2017-04-25T07:14:05.294Z,18.16
2017-04-25T07:15:15.629Z,18.32
2017-04-25T07:16:25.353Z,18.27
2017-04-25T07:17:35.395Z,18.42
2017-04-25T07:18:45.761Z,18.39
2017-04-25T07:19:55.817Z,18.44
2017-04-25T07:21:05.854Z,18.47
2017-04-25T07:22:16.205Z,18.51
2017-04-25T07:23:26.551Z,18.56
2017-04-25T07:24:36.906Z,18.68
2017-04-25T07:25:47.262Z,18.76
2017-04-25T07:26:57.613Z,18.86
2017-04-25T07:28:07.960Z,18.86
2017-04-25T07:29:18.303Z,18.97
2017-04-25T07:30:28.340Z,18.97
2017-04-25T07:31:38.711Z,18.94
2017-04-25T07:32:48.752Z,19.07
2017-04-25T07:33:59.098Z,19.09
2017-04-25T07:35:09.450Z,19.28
2017-04-25T07:36:19.468Z,19.37
2017-04-25T07:37:29.837Z,19.42
2017-04-25T07:38:40.204Z,19.47
2017-04-25T07:39:50.531Z,19.5
2017-04-25T07:41:00.865Z,19.6
2017-04-25T07:42:10.907Z,19.56
2017-04-25T07:43:20.946Z,19.65
2017-04-25T07:44:31.289Z,19.72
2017-04-25T07:45:41.656Z,19.86
2017-04-25T07:46:51.682Z,19.93
2017-04-25T07:48:02.015Z,20.04
2017-04-25T07:49:12.374Z,20.05
2017-04-25T07:50:22.724Z,20.1
2017-04-25T07:51:32.770Z,20.12
2017-04-25T07:52:43.116Z,20.23
2017-04-25T07:53:53.144Z,20.22
2017-04-25T07:55:03.483Z,20.35
2017-04-25T07:56:13.835Z,20.42
2017-04-25T07:57:24.184Z,20.51
2017-04-25T07:58:34.555Z,20.64
2017-04-25T07:59:44.903Z,20.67
2017-04-25T08:00:54.918Z,20.81
2017-04-25T08:02:04.965Z,20.94
2017-04-25T08:03:15.323Z,21.01
2017-04-25T08:04:25.673Z,21.12
2017-04-25T08:05:35.710Z,21.22
2017-04-25T08:06:45.746Z,21.25
2017-04-25T08:07:55.794Z,21.3
2017-04-25T08:09:06.149Z,21.43
2017-04-25T08:10:16.517Z,21.52
2017-04-25T08:11:26.233Z,21.67
2017-04-25T08:12:36.322Z,21.73
2017-04-25T08:13:46.358Z,21.78
2017-04-25T08:14:56.089Z,21.82
2017-04-25T08:16:06.449Z,21.86
2017-04-25T08:17:16.805Z,21.92
2017-04-25T08:18:27.138Z,22.07
2017-04-25T08:19:37.470Z,22.16
2017-04-25T08:20:47.517Z,22.26
2017-04-25T08:21:57.885Z,22.44
2017-04-25T08:23:08.487Z,22.64
2017-04-25T08:24:18.837Z,22.78
2017-04-25T08:25:29.179Z,22.88
2017-04-25T08:26:39.519Z,23.1
2017-04-25T08:27:50.212Z,23.21
2017-04-25T08:29:00.259Z,23.26
2017-04-25T08:30:10.644Z,23.37
2017-04-25T08:31:20.702Z,23.47
2017-04-25T08:32:31.082Z,23.56
2017-04-25T08:33:41.466Z,23.64
2017-04-25T08:34:51.488Z,23.77
2017-04-25T08:36:01.233Z,23.85
2017-04-25T08:37:11.586Z,23.96
2017-04-25T08:38:21.632Z,24.03
2017-04-25T08:39:32.006Z,24.07
2017-04-25T08:40:42.365Z,24.09
2017-04-25T08:41:52.099Z,24.12
2017-04-25T08:43:02.454Z,24
2017-04-25T08:44:12.830Z,24
2017-04-25T08:45:22.891Z,24.07
2017-04-25T08:46:33.232Z,24.08
2017-04-25T08:47:43.587Z,24.09
2017-04-25T08:48:53.948Z,24.21
2017-04-25T08:50:04.305Z,24.15
2017-04-25T08:51:14.651Z,24.18
2017-04-25T08:52:25.016Z,24.14
2017-04-25T08:53:35.368Z,24.29
2017-04-25T08:54:45.412Z,24.33
2017-04-25T08:55:55.482Z,24.46
2017-04-25T08:57:05.840Z,24.64
2017-04-25T08:58:15.913Z,24.71
2017-04-25T08:59:25.958Z,24.85
2017-04-25T09:00:35.999Z,24.71
2017-04-25T09:01:46.359Z,24.85
2017-04-25T09:02:56.704Z,24.58
2017-04-25T09:04:06.441Z,24.7
2017-04-25T09:05:16.790Z,24.54
2017-04-25T09:06:27.134Z,24.33
2017-04-25T09:07:37.169Z,24.18
2017-04-25T09:08:46.919Z,24.18
2017-04-25T09:09:56.980Z,24.29
2017-04-25T09:11:07.026Z,24.19
2017-04-25T09:12:17.411Z,24.22
2017-04-25T09:13:27.776Z,24.33
2017-04-25T09:14:38.146Z,24.44
2017-04-25T09:15:48.493Z,24.49
2017-04-25T09:16:58.231Z,24.52
2017-04-25T09:18:08.596Z,24.58
2017-04-25T09:19:18.949Z,24.56
2017-04-25T09:20:28.980Z,24.71
2017-04-25T09:21:39.326Z,24.69
2017-04-25T09:22:49.052Z,24.69
2017-04-25T09:23:59.401Z,24.67
2017-04-25T09:25:09.450Z,24.67
2017-04-25T09:26:19.783Z,24.71
2017-04-25T09:27:29.514Z,24.69
2017-04-25T09:28:39.878Z,24.82
2017-04-25T09:29:49.903Z,24.85
2017-04-25T09:30:59.941Z,24.83
2017-04-25T09:32:09.995Z,24.78
2017-04-25T09:33:20.035Z,24.83
2017-04-25T09:34:30.105Z,24.8
2017-04-25T09:35:40.449Z,24.8
2017-04-25T09:36:50.804Z,24.78
2017-04-25T09:38:00.838Z,24.85
2017-04-25T09:39:11.202Z,24.94
2017-04-25T09:40:21.558Z,25.05
2017-04-25T09:41:31.916Z,25.04
2017-04-25T09:42:42.258Z,25.05
2017-04-25T09:43:51.979Z,25.17
2017-04-25T09:45:02.020Z,25.17
2017-04-25T09:46:12.366Z,25.05
2017-04-25T09:47:22.710Z,25.07
2017-04-25T09:48:33.077Z,25.12
2017-04-25T09:49:42.500Z,25.27
2017-04-25T09:50:52.862Z,25.37
2017-04-25T09:52:03.233Z,25.47
2017-04-25T09:53:13.706Z,25.56
2017-04-25T09:54:23.736Z,25.69
2017-04-25T09:55:34.099Z,25.63
2017-04-25T09:56:44.137Z,25.74
2017-04-25T09:57:54.502Z,25.7
2017-04-25T09:59:04.851Z,25.82
2017-04-25T10:00:14.898Z,25.79
2017-04-25T10:01:24.629Z,25.91
2017-04-25T10:02:34.977Z,25.88
2017-04-25T10:03:45.333Z,25.86
2017-04-25T10:04:55.694Z,25.86
2017-04-25T10:06:06.085Z,25.86
2017-04-25T10:07:16.120Z,25.94
2017-04-25T10:08:26.491Z,25.91
2017-04-25T10:09:36.850Z,25.94
2017-04-25T10:10:48.846Z,26.01
2017-04-25T10:11:58.884Z,26
2017-04-25T10:13:09.276Z,26
2017-04-25T10:14:19.669Z,26.09
2017-04-25T10:15:29.789Z,26.15
2017-04-25T10:16:39.864Z,26.22
2017-04-25T10:17:50.263Z,26.27
2017-04-25T10:19:01.116Z,26.34
2017-04-25T10:20:12.702Z,26.32
2017-04-25T10:21:23.287Z,26.45
2017-04-25T10:22:35.130Z,26.63
2017-04-25T10:23:47.004Z,26.74
2017-04-25T10:24:58.841Z,26.84
2017-04-25T10:26:10.409Z,26.97
2017-04-25T10:27:21.573Z,26.96
2017-04-25T10:28:31.949Z,26.71
2017-04-25T10:29:42.898Z,26.61
2017-04-25T10:30:54.294Z,26.69
2017-04-25T10:32:04.337Z,26.74
2017-04-25T10:33:14.702Z,26.91
2017-04-25T10:34:24.748Z,26.94
2017-04-25T10:35:35.120Z,26.97
2017-04-25T10:36:45.467Z,27.01
2017-04-25T10:37:55.527Z,26.93
2017-04-25T10:39:05.915Z,26.94
2017-04-25T10:40:16.293Z,27
2017-04-25T10:41:26.332Z,26.93
2017-04-25T10:42:36.687Z,26.96
2017-04-25T10:43:47.058Z,26.94
2017-04-25T10:44:57.479Z,27.09
2017-04-25T10:46:07.843Z,27.16
2017-04-25T10:47:17.902Z,27.28
2017-04-25T10:48:28.262Z,27.36
2017-04-25T10:49:38.654Z,27.46
2017-04-25T10:50:49.096Z,27.52
2017-04-25T10:51:59.162Z,27.61
2017-04-25T10:53:09.775Z,27.8
2017-04-25T10:54:19.835Z,27.83
2017-04-25T10:55:29.900Z,27.87
2017-04-25T10:56:40.042Z,27.93
2017-04-25T10:57:50.105Z,28.03
2017-04-25T10:59:00.502Z,28.03
2017-04-25T11:00:10.900Z,28.12
2017-04-25T11:01:21.315Z,28.11
2017-04-25T11:02:31.399Z,28.18
2017-04-25T11:03:41.782Z,28.11
2017-04-25T11:04:51.856Z,27.94
2017-04-25T11:06:02.239Z,27.96
2017-04-25T11:07:12.612Z,27.9
2017-04-25T11:08:23.013Z,27.98
2017-04-25T11:09:33.079Z,27.98
2017-04-25T11:10:43.469Z,28.05
2017-04-25T11:11:53.555Z,28.05
2017-04-25T11:13:03.629Z,28.11
2017-04-25T11:14:14.050Z,28.14
2017-04-25T11:15:24.118Z,28.2
2017-04-25T11:16:34.183Z,28.11
2017-04-25T11:17:44.263Z,28.09
2017-04-25T11:18:54.697Z,28.12
2017-04-25T11:20:05.085Z,28.17
2017-04-25T11:21:15.461Z,28.16
2017-04-25T11:22:25.860Z,28.14
2017-04-25T11:23:35.995Z,28.24
2017-04-25T11:24:46.381Z,28.16
2017-04-25T11:25:56.764Z,28.17
2017-04-25T11:27:07.159Z,28.14
2017-04-25T11:28:17.585Z,28.17
2017-04-25T11:29:27.683Z,28.24
2017-04-25T11:30:38.075Z,28.08
2017-04-25T11:31:48.437Z,28.09
2017-04-25T11:32:58.505Z,28.23
2017-04-25T11:34:08.903Z,28.23
2017-04-25T11:35:19.283Z,28.27
2017-04-25T11:36:29.683Z,28.36
2017-04-25T11:37:40.077Z,28.36
2017-04-25T11:38:50.510Z,28.39
2017-04-25T11:40:00.909Z,28.41
2017-04-25T11:41:11.303Z,28.43
2017-04-25T11:42:21.678Z,28.53
2017-04-25T11:43:32.061Z,28.55
2017-04-25T11:44:42.438Z,28.67
2017-04-25T11:45:52.480Z,28.68
2017-04-25T11:47:02.835Z,28.64
2017-04-25T11:48:13.213Z,28.68
2017-04-25T11:49:23.568Z,28.7
2017-04-25T11:50:33.616Z,28.65
2017-04-25T11:51:43.961Z,28.64
2017-04-25T11:52:54.311Z,28.57
2017-04-25T11:54:04.052Z,28.67
2017-04-25T11:55:14.446Z,28.61
2017-04-25T11:56:24.804Z,28.65
2017-04-25T11:57:35.163Z,28.64
2017-04-25T11:58:45.189Z,28.78
2017-04-25T11:59:55.544Z,28.73
2017-04-25T12:01:05.608Z,28.75
2017-04-25T12:02:15.977Z,28.85
2017-04-25T12:03:26.021Z,28.85
2017-04-25T12:04:35.755Z,28.9
2017-04-25T12:05:46.102Z,28.85
2017-04-25T12:06:56.142Z,28.85
2017-04-25T12:08:06.241Z,28.85
2017-04-25T12:09:16.293Z,28.85
2017-04-25T12:10:26.645Z,28.95
2017-04-25T12:11:36.710Z,28.92
2017-04-25T12:12:46.754Z,28.94
2017-04-25T12:13:56.867Z,29.02
2017-04-25T12:15:07.223Z,29.06
2017-04-25T12:16:17.608Z,29.15
2017-04-25T12:17:27.701Z,29.14
2017-04-25T12:18:38.049Z,29.17
2017-04-25T12:19:48.428Z,29.15
2017-04-25T12:20:58.801Z,29.11
2017-04-25T12:22:09.163Z,29.1
2017-04-25T12:23:19.530Z,29.2
2017-04-25T12:24:29.277Z,29.18
2017-04-25T12:25:39.628Z,29.26
2017-04-25T12:26:49.994Z,28.98
2017-04-25T12:28:00.375Z,29.06
2017-04-25T12:29:10.429Z,29.01
2017-04-25T12:30:19.902Z,28.97
2017-04-25T12:31:30.253Z,28.63
2017-04-25T12:32:40.305Z,28.85
2017-04-25T12:33:50.664Z,28.88
2017-04-25T12:35:01.035Z,29.15
2017-04-25T12:36:11.082Z,29.3
2017-04-25T12:37:21.430Z,29.6
2017-04-25T12:38:31.475Z,29.92
2017-04-25T12:39:41.551Z,30.22
2017-04-25T12:40:51.924Z,30.51
2017-04-25T12:42:02.288Z,30.28
2017-04-25T12:43:12.657Z,30.67
2017-04-25T12:44:22.704Z,31
2017-04-25T12:45:33.061Z,31.26
2017-04-25T12:46:43.089Z,31.13
2017-04-25T12:47:53.444Z,31.3
2017-04-25T12:49:03.823Z,31.13
2017-04-25T12:50:14.178Z,31.38
2017-04-25T12:51:24.220Z,31.33
2017-04-25T12:52:34.590Z,31.21
2017-04-25T12:53:44.648Z,31.41
2017-04-25T12:54:54.695Z,31.38
2017-04-25T12:56:05.058Z,31.56
2017-04-25T12:57:15.101Z,31.71
2017-04-25T12:58:25.481Z,31.74
2017-04-25T12:59:35.897Z,31.74
2017-04-25T13:00:46.265Z,31.78
2017-04-25T13:01:56.646Z,31.49
2017-04-25T13:03:06.696Z,31.43
2017-04-25T13:04:16.749Z,31.45
2017-04-25T13:05:27.129Z,31.67
2017-04-25T13:06:37.501Z,31.82
2017-04-25T13:07:47.867Z,31.77
2017-04-25T13:08:57.926Z,31.6
2017-04-25T13:10:08.293Z,31.47
2017-04-25T13:11:18.644Z,31.37
2017-04-25T13:12:28.397Z,31.18
2017-04-25T13:13:38.443Z,31.06
2017-04-25T13:14:48.188Z,30.81
2017-04-25T13:15:58.557Z,30.57
2017-04-25T13:17:08.921Z,30.44
2017-04-25T13:18:19.285Z,29.97
2017-04-25T13:19:29.647Z,29.6
2017-04-25T13:20:39.994Z,29.51
2017-04-25T13:21:50.350Z,29.33
2017-04-25T13:23:00.683Z,29.43
2017-04-25T13:24:11.084Z,29.61
2017-04-25T13:25:21.453Z,29.67
2017-04-25T13:26:31.495Z,29.88
2017-04-25T13:27:41.849Z,30.16
2017-04-25T13:28:51.916Z,30.54
2017-04-25T13:30:02.268Z,30.88
2017-04-25T13:31:12.316Z,31.03
2017-04-25T13:32:22.365Z,31.22
2017-04-25T13:33:32.093Z,31.16
2017-04-25T13:34:42.135Z,31.33
2017-04-25T13:35:52.178Z,31.22
2017-04-25T13:37:02.530Z,31.16
2017-04-25T13:38:12.885Z,31.16
2017-04-25T13:39:23.260Z,31.06
2017-04-25T13:40:33.620Z,30.88
2017-04-25T13:41:44.008Z,30.7
2017-04-25T13:42:54.357Z,30.64
2017-04-25T13:44:04.719Z,30.57
2017-04-25T13:45:15.080Z,30.6
2017-04-25T13:46:24.832Z,30.51
2017-04-25T13:47:35.188Z,30.37
2017-04-25T13:48:45.538Z,30.11
2017-04-25T13:49:55.607Z,29.94
2017-04-25T13:51:05.953Z,29.52
2017-04-25T13:52:16.310Z,29.32
2017-04-25T13:53:26.672Z,29.32
2017-04-25T13:54:37.066Z,29.24
2017-04-25T13:55:47.123Z,28.97
2017-04-25T13:56:57.466Z,28.82
2017-04-25T13:58:07.839Z,28.75
2017-04-25T13:59:18.132Z,28.6
2017-04-25T14:00:28.491Z,28.75
2017-04-25T14:01:38.527Z,28.9
2017-04-25T14:02:48.945Z,29.05
2017-04-25T14:03:59.310Z,29.05
2017-04-25T14:05:09.660Z,29.02
2017-04-25T14:06:20.016Z,28.65
2017-04-25T14:07:30.382Z,28.64
2017-04-25T14:08:40.790Z,28.35
2017-04-25T14:09:50.875Z,28.35
2017-04-25T14:11:00.629Z,28.33
2017-04-25T14:12:11.014Z,28.33
2017-04-25T14:13:21.380Z,28.33
2017-04-25T14:14:31.447Z,28.39
2017-04-25T14:15:41.822Z,28.3
2017-04-25T14:16:51.875Z,28.35
2017-04-25T14:18:01.958Z,28.41
2017-04-25T14:19:12.309Z,28.23
2017-04-25T14:20:22.053Z,28.23
2017-04-25T14:21:32.114Z,28.26
2017-04-25T14:22:42.474Z,28.27
2017-04-25T14:23:52.535Z,28.31
2017-04-25T14:25:02.598Z,28.18
2017-04-25T14:26:12.678Z,28.2
2017-04-25T14:27:23.100Z,27.93
2017-04-25T14:28:33.166Z,27.89
2017-04-25T14:29:43.537Z,27.71
2017-04-25T14:30:53.929Z,27.42
2017-04-25T14:32:04.299Z,27.15
2017-04-25T14:33:14.678Z,27.08
2017-04-25T14:34:24.741Z,27.21
2017-04-25T14:35:35.112Z,27.59
2017-04-25T14:36:45.480Z,27.66
2017-04-25T14:37:55.852Z,27.36
2017-04-25T14:39:06.225Z,27.28
2017-04-25T14:40:16.287Z,27.21
2017-04-25T14:41:26.635Z,27.21
2017-04-25T14:42:36.383Z,27.62
2017-04-25T14:43:46.442Z,27.72
2017-04-25T14:44:56.787Z,27.79
2017-04-25T14:46:07.148Z,27.84
2017-04-25T14:47:17.518Z,27.71
2017-04-25T14:48:27.884Z,27.83
2017-04-25T14:49:38.249Z,27.72
2017-04-25T14:50:48.604Z,27.74
2017-04-25T14:51:58.324Z,27.75
2017-04-25T14:53:08.680Z,27.72
2017-04-25T14:54:18.765Z,27.61
2017-04-25T14:55:29.129Z,27.61
2017-04-25T14:56:39.161Z,27.33
2017-04-25T14:57:48.900Z,27.37
2017-04-25T14:58:59.257Z,27.33
2017-04-25T15:00:09.321Z,27.23
2017-04-25T15:01:19.712Z,27.08
2017-04-25T15:02:29.756Z,26.91
2017-04-25T15:03:39.791Z,26.94
2017-04-25T15:04:50.164Z,27.08
2017-04-25T15:06:00.217Z,27.11
2017-04-25T15:07:10.596Z,27.13
2017-04-25T15:08:20.963Z,27.23
2017-04-25T15:09:30.699Z,27.36
2017-04-25T15:10:41.055Z,27.21
2017-04-25T15:11:51.106Z,27.21
2017-04-25T15:13:01.454Z,27.3
2017-04-25T15:14:11.231Z,27.38
2017-04-25T15:15:21.280Z,27.41
2017-04-25T15:16:31.313Z,27.41
2017-04-25T15:17:41.690Z,27.34
2017-04-25T15:18:52.081Z,27.38
2017-04-25T15:20:02.440Z,27.36
2017-04-25T15:21:12.784Z,27.46
2017-04-25T15:22:23.140Z,27.53
2017-04-25T15:23:33.483Z,27.51
2017-04-25T15:24:43.534Z,27.59
2017-04-25T15:25:53.899Z,27.57
2017-04-25T15:27:04.260Z,27.62
2017-04-25T15:28:14.619Z,27.51
2017-04-25T15:29:24.991Z,27.49
2017-04-25T15:30:35.019Z,27.45
2017-04-25T15:31:45.379Z,27.31
2017-04-25T15:32:55.744Z,27.18
2017-04-25T15:34:06.082Z,27.06
2017-04-25T15:35:16.137Z,27.11
2017-04-25T15:36:26.187Z,27
2017-04-25T15:37:36.561Z,26.94
2017-04-25T15:38:46.601Z,26.76
2017-04-25T15:39:56.945Z,26.59
2017-04-25T15:41:07.004Z,26.47
2017-04-25T15:42:16.768Z,26.42
2017-04-25T15:43:26.829Z,26.27